sensor_id;sensor_type;location;lat;lon;timestamp;P1;durP1;ratioP1;P2;durP2;ratioP2
71941;SDS011;59997;53.300;-6.260;2022-08-14T00:00:10;67.23;;;21.57;;
71941;SDS011;59997;53.300;-6.260;2022-08-14T00:02:40;68.28;;;21.77;;
71941;SDS011;59997;53.300;-6.260;2022-08-14T00:05:07;68.38;;;21.35;;
71941;SDS011;59997;53.300;-6.260;2022-08-14T00:07:34;72.70;;;21.42;;
71941;SDS011;59997;53.300;-6.260;2022-08-14T00:10:01;68.17;;;21.53;;
71941;SDS011;59997;53.300;-6.260;2022-08-14T00:12:28;73.90;;;22.48;;
71941;SDS011;59997;53.300;-6.260;2022-08-14T00:14:55;82.43;;;24.48;;
71941;SDS011;59997;53.300;-6.260;2022-08-14T00:17:21;76.78;;;24.05;;
71941;SDS011;59997;53.300;-6.260;2022-08-14T00:19:47;86.18;;;24.30;;
71941;SDS011;59997;53.300;-6.260;2022-08-14T00:22:13;81.93;;;23.40;;
71941;SDS011;59997;53.300;-6.260;2022-08-14T00:24:43;83.93;;;24.73;;
71941;SDS011;59997;53.300;-6.260;2022-08-14T00:27:09;77.32;;;23.15;;
71941;SDS011;59997;53.300;-6.260;2022-08-14T00:29:36;70.87;;;21.73;;
71941;SDS011;59997;53.300;-6.260;2022-08-14T00:32:02;68.80;;;21.17;;
71941;SDS011;59997;53.300;-6.260;2022-08-14T00:34:28;69.15;;;21.27;;
71941;SDS011;59997;53.300;-6.260;2022-08-14T00:36:54;76.80;;;22.60;;
71941;SDS011;59997;53.300;-6.260;2022-08-14T00:39:20;74.65;;;23.15;;
71941;SDS011;59997;53.300;-6.260;2022-08-14T00:41:47;75.10;;;23.85;;
71941;SDS011;59997;53.300;-6.260;2022-08-14T00:44:13;84.55;;;23.85;;
71941;SDS011;59997;53.300;-6.260;2022-08-14T00:46:39;72.10;;;23.37;;
71941;SDS011;59997;53.300;-6.260;2022-08-14T00:49:05;78.50;;;24.95;;
71941;SDS011;59997;53.300;-6.260;2022-08-14T00:51:32;76.05;;;24.58;;
71941;SDS011;59997;53.300;-6.260;2022-08-14T00:53:59;69.70;;;24.25;;
71941;SDS011;59997;53.300;-6.260;2022-08-14T00:56:28;71.47;;;23.92;;
71941;SDS011;59997;53.300;-6.260;2022-08-14T00:58:54;70.87;;;24.37;;
71941;SDS011;59997;53.300;-6.260;2022-08-14T01:01:21;64.80;;;22.73;;
71941;SDS011;59997;53.300;-6.260;2022-08-14T01:03:47;71.95;;;24.15;;
71941;SDS011;59997;53.300;-6.260;2022-08-14T01:06:13;71.57;;;23.73;;
71941;SDS011;59997;53.300;-6.260;2022-08-14T01:08:42;69.90;;;24.03;;
71941;SDS011;59997;53.300;-6.260;2022-08-14T01:11:10;74.05;;;23.60;;
71941;SDS011;59997;53.300;-6.260;2022-08-14T01:13:40;63.42;;;21.85;;
71941;SDS011;59997;53.300;-6.260;2022-08-14T01:16:09;61.47;;;22.15;;
71941;SDS011;59997;53.300;-6.260;2022-08-14T01:18:37;67.57;;;23.08;;
71941;SDS011;59997;53.300;-6.260;2022-08-14T01:21:37;66.00;;;21.67;;
71941;SDS011;59997;53.300;-6.260;2022-08-14T01:24:05;63.88;;;22.50;;
71941;SDS011;59997;53.300;-6.260;2022-08-14T01:26:32;64.47;;;22.70;;
71941;SDS011;59997;53.300;-6.260;2022-08-14T01:29:03;63.22;;;22.40;;
71941;SDS011;59997;53.300;-6.260;2022-08-14T01:31:32;57.08;;;21.02;;
71941;SDS011;59997;53.300;-6.260;2022-08-14T01:34:10;64.43;;;20.93;;
71941;SDS011;59997;53.300;-6.260;2022-08-14T01:36:36;60.85;;;21.27;;
71941;SDS011;59997;53.300;-6.260;2022-08-14T01:39:04;67.13;;;22.52;;
71941;SDS011;59997;53.300;-6.260;2022-08-14T01:41:43;65.87;;;21.70;;
71941;SDS011;59997;53.300;-6.260;2022-08-14T01:44:13;66.57;;;22.85;;
71941;SDS011;59997;53.300;-6.260;2022-08-14T01:46:40;56.17;;;20.95;;
71941;SDS011;59997;53.300;-6.260;2022-08-14T01:49:12;57.95;;;21.30;;
71941;SDS011;59997;53.300;-6.260;2022-08-14T01:51:42;59.72;;;21.38;;
71941;SDS011;59997;53.300;-6.260;2022-08-14T01:54:13;62.40;;;20.80;;
71941;SDS011;59997;53.300;-6.260;2022-08-14T01:56:46;58.42;;;21.25;;
71941;SDS011;59997;53.300;-6.260;2022-08-14T01:59:31;61.33;;;21.02;;
71941;SDS011;59997;53.300;-6.260;2022-08-14T02:02:02;59.78;;;19.85;;
71941;SDS011;59997;53.300;-6.260;2022-08-14T02:04:35;55.13;;;19.95;;
71941;SDS011;59997;53.300;-6.260;2022-08-14T02:07:02;57.20;;;19.93;;
71941;SDS011;59997;53.300;-6.260;2022-08-14T02:09:28;60.75;;;20.55;;
71941;SDS011;59997;53.300;-6.260;2022-08-14T02:12:03;63.20;;;22.75;;
71941;SDS011;59997;53.300;-6.260;2022-08-14T02:14:34;60.53;;;21.57;;
71941;SDS011;59997;53.300;-6.260;2022-08-14T02:17:01;59.75;;;20.92;;
71941;SDS011;59997;53.300;-6.260;2022-08-14T02:19:34;52.78;;;19.35;;
71941;SDS011;59997;53.300;-6.260;2022-08-14T02:22:00;53.57;;;19.60;;
71941;SDS011;59997;53.300;-6.260;2022-08-14T02:24:27;58.53;;;21.15;;
71941;SDS011;59997;53.300;-6.260;2022-08-14T02:26:54;61.63;;;23.00;;
71941;SDS011;59997;53.300;-6.260;2022-08-14T02:29:25;67.63;;;23.40;;
71941;SDS011;59997;53.300;-6.260;2022-08-14T02:31:54;58.33;;;22.70;;
71941;SDS011;59997;53.300;-6.260;2022-08-14T02:34:25;56.90;;;21.50;;
71941;SDS011;59997;53.300;-6.260;2022-08-14T02:36:54;51.10;;;19.70;;
71941;SDS011;59997;53.300;-6.260;2022-08-14T02:39:27;55.33;;;19.52;;
71941;SDS011;59997;53.300;-6.260;2022-08-14T02:41:55;60.92;;;20.70;;
71941;SDS011;59997;53.300;-6.260;2022-08-14T02:44:25;56.30;;;20.75;;
71941;SDS011;59997;53.300;-6.260;2022-08-14T02:46:52;58.57;;;21.17;;
71941;SDS011;59997;53.300;-6.260;2022-08-14T02:49:22;63.58;;;22.13;;
71941;SDS011;59997;53.300;-6.260;2022-08-14T02:51:52;59.15;;;21.80;;
71941;SDS011;59997;53.300;-6.260;2022-08-14T02:54:22;59.27;;;21.03;;
71941;SDS011;59997;53.300;-6.260;2022-08-14T02:56:54;52.58;;;20.17;;
71941;SDS011;59997;53.300;-6.260;2022-08-14T02:59:22;60.83;;;21.65;;
71941;SDS011;59997;53.300;-6.260;2022-08-14T03:01:50;69.43;;;23.58;;
71941;SDS011;59997;53.300;-6.260;2022-08-14T03:04:18;62.55;;;22.70;;
71941;SDS011;59997;53.300;-6.260;2022-08-14T03:06:45;64.40;;;22.37;;
71941;SDS011;59997;53.300;-6.260;2022-08-14T03:09:11;64.35;;;22.58;;
71941;SDS011;59997;53.300;-6.260;2022-08-14T03:11:37;69.87;;;23.43;;
71941;SDS011;59997;53.300;-6.260;2022-08-14T03:14:04;64.95;;;23.20;;
71941;SDS011;59997;53.300;-6.260;2022-08-14T03:16:30;69.53;;;22.95;;
71941;SDS011;59997;53.300;-6.260;2022-08-14T03:19:00;61.80;;;22.23;;
71941;SDS011;59997;53.300;-6.260;2022-08-14T03:21:28;67.70;;;22.83;;
71941;SDS011;59997;53.300;-6.260;2022-08-14T03:23:57;73.43;;;22.55;;
71941;SDS011;59997;53.300;-6.260;2022-08-14T03:26:43;70.38;;;22.95;;
71941;SDS011;59997;53.300;-6.260;2022-08-14T03:29:11;68.63;;;22.65;;
71941;SDS011;59997;53.300;-6.260;2022-08-14T03:31:39;74.53;;;22.77;;
71941;SDS011;59997;53.300;-6.260;2022-08-14T03:34:08;73.07;;;24.20;;
71941;SDS011;59997;53.300;-6.260;2022-08-14T03:36:36;73.25;;;24.42;;
71941;SDS011;59997;53.300;-6.260;2022-08-14T03:39:05;72.13;;;24.23;;
71941;SDS011;59997;53.300;-6.260;2022-08-14T03:41:33;71.50;;;23.08;;
71941;SDS011;59997;53.300;-6.260;2022-08-14T03:44:00;70.53;;;21.77;;
71941;SDS011;59997;53.300;-6.260;2022-08-14T03:46:31;65.53;;;22.60;;
71941;SDS011;59997;53.300;-6.260;2022-08-14T03:48:59;62.60;;;22.13;;
71941;SDS011;59997;53.300;-6.260;2022-08-14T03:51:29;58.53;;;21.02;;
71941;SDS011;59997;53.300;-6.260;2022-08-14T03:53:57;60.15;;;20.30;;
71941;SDS011;59997;53.300;-6.260;2022-08-14T03:56:24;63.80;;;22.07;;
71941;SDS011;59997;53.300;-6.260;2022-08-14T03:58:53;67.38;;;21.73;;
71941;SDS011;59997;53.300;-6.260;2022-08-14T04:01:21;57.03;;;20.65;;
71941;SDS011;59997;53.300;-6.260;2022-08-14T04:03:50;54.95;;;19.80;;
71941;SDS011;59997;53.300;-6.260;2022-08-14T04:06:17;59.38;;;21.48;;
71941;SDS011;59997;53.300;-6.260;2022-08-14T04:08:46;63.70;;;20.67;;
71941;SDS011;59997;53.300;-6.260;2022-08-14T04:11:14;60.97;;;21.83;;
71941;SDS011;59997;53.300;-6.260;2022-08-14T04:13:41;71.20;;;22.10;;
71941;SDS011;59997;53.300;-6.260;2022-08-14T04:16:13;66.47;;;21.75;;
71941;SDS011;59997;53.300;-6.260;2022-08-14T04:18:40;60.05;;;21.15;;
71941;SDS011;59997;53.300;-6.260;2022-08-14T04:21:09;58.67;;;20.20;;
71941;SDS011;59997;53.300;-6.260;2022-08-14T04:23:35;65.38;;;20.65;;
71941;SDS011;59997;53.300;-6.260;2022-08-14T04:26:05;69.68;;;22.15;;
71941;SDS011;59997;53.300;-6.260;2022-08-14T04:28:33;72.15;;;22.48;;
71941;SDS011;59997;53.300;-6.260;2022-08-14T04:31:00;73.90;;;23.13;;
71941;SDS011;59997;53.300;-6.260;2022-08-14T04:33:27;70.35;;;22.58;;
71941;SDS011;59997;53.300;-6.260;2022-08-14T04:35:53;65.15;;;21.73;;
71941;SDS011;59997;53.300;-6.260;2022-08-14T04:38:20;65.30;;;21.60;;
71941;SDS011;59997;53.300;-6.260;2022-08-14T04:41:05;58.65;;;19.48;;
71941;SDS011;59997;53.300;-6.260;2022-08-14T04:43:50;61.93;;;20.73;;
71941;SDS011;59997;53.300;-6.260;2022-08-14T04:46:17;56.83;;;19.98;;
71941;SDS011;59997;53.300;-6.260;2022-08-14T04:48:45;55.90;;;19.83;;
71941;SDS011;59997;53.300;-6.260;2022-08-14T04:51:14;54.97;;;19.10;;
71941;SDS011;59997;53.300;-6.260;2022-08-14T04:53:42;56.03;;;19.38;;
71941;SDS011;59997;53.300;-6.260;2022-08-14T04:56:13;56.10;;;19.10;;
71941;SDS011;59997;53.300;-6.260;2022-08-14T04:58:41;57.03;;;18.27;;
71941;SDS011;59997;53.300;-6.260;2022-08-14T05:01:08;57.08;;;18.67;;
71941;SDS011;59997;53.300;-6.260;2022-08-14T05:03:35;57.38;;;18.27;;
71941;SDS011;59997;53.300;-6.260;2022-08-14T05:06:07;53.50;;;18.73;;
71941;SDS011;59997;53.300;-6.260;2022-08-14T05:08:36;49.93;;;17.53;;
71941;SDS011;59997;53.300;-6.260;2022-08-14T05:11:03;57.33;;;18.58;;
71941;SDS011;59997;53.300;-6.260;2022-08-14T05:13:30;54.03;;;17.13;;
71941;SDS011;59997;53.300;-6.260;2022-08-14T05:15:57;64.22;;;19.38;;
71941;SDS011;59997;53.300;-6.260;2022-08-14T05:18:25;59.83;;;19.60;;
71941;SDS011;59997;53.300;-6.260;2022-08-14T05:21:00;55.90;;;18.20;;
71941;SDS011;59997;53.300;-6.260;2022-08-14T05:23:29;61.40;;;19.20;;
71941;SDS011;59997;53.300;-6.260;2022-08-14T05:25:57;61.28;;;18.85;;
71941;SDS011;59997;53.300;-6.260;2022-08-14T05:28:32;55.92;;;18.73;;
71941;SDS011;59997;53.300;-6.260;2022-08-14T05:31:03;54.40;;;18.58;;
71941;SDS011;59997;53.300;-6.260;2022-08-14T05:33:31;66.00;;;20.00;;
71941;SDS011;59997;53.300;-6.260;2022-08-14T05:35:59;60.55;;;20.30;;
71941;SDS011;59997;53.300;-6.260;2022-08-14T05:38:27;65.28;;;20.60;;
71941;SDS011;59997;53.300;-6.260;2022-08-14T05:41:09;68.32;;;22.00;;
71941;SDS011;59997;53.300;-6.260;2022-08-14T05:43:38;53.15;;;18.55;;
71941;SDS011;59997;53.300;-6.260;2022-08-14T05:46:05;57.37;;;19.43;;
71941;SDS011;59997;53.300;-6.260;2022-08-14T05:48:31;70.18;;;20.45;;
71941;SDS011;59997;53.300;-6.260;2022-08-14T05:50:57;57.35;;;20.70;;
71941;SDS011;59997;53.300;-6.260;2022-08-14T05:53:23;65.37;;;20.57;;
71941;SDS011;59997;53.300;-6.260;2022-08-14T05:55:50;65.10;;;20.50;;
71941;SDS011;59997;53.300;-6.260;2022-08-14T05:58:17;58.17;;;20.13;;
71941;SDS011;59997;53.300;-6.260;2022-08-14T06:00:44;62.70;;;21.15;;
71941;SDS011;59997;53.300;-6.260;2022-08-14T06:03:12;57.28;;;20.15;;
71941;SDS011;59997;53.300;-6.260;2022-08-14T06:05:44;60.33;;;20.70;;
71941;SDS011;59997;53.300;-6.260;2022-08-14T06:08:14;56.75;;;19.52;;
71941;SDS011;59997;53.300;-6.260;2022-08-14T06:10:42;60.75;;;19.27;;
71941;SDS011;59997;53.300;-6.260;2022-08-14T06:13:09;56.50;;;19.83;;
71941;SDS011;59997;53.300;-6.260;2022-08-14T06:15:34;51.90;;;18.50;;
71941;SDS011;59997;53.300;-6.260;2022-08-14T06:18:01;50.60;;;18.07;;
71941;SDS011;59997;53.300;-6.260;2022-08-14T06:20:27;48.80;;;19.20;;
71941;SDS011;59997;53.300;-6.260;2022-08-14T06:22:56;43.70;;;16.93;;
71941;SDS011;59997;53.300;-6.260;2022-08-14T06:25:23;37.97;;;17.33;;
71941;SDS011;59997;53.300;-6.260;2022-08-14T06:27:48;36.60;;;16.27;;
71941;SDS011;59997;53.300;-6.260;2022-08-14T06:30:15;35.30;;;15.03;;
71941;SDS011;59997;53.300;-6.260;2022-08-14T06:32:45;30.83;;;13.80;;
71941;SDS011;59997;53.300;-6.260;2022-08-14T06:35:12;28.90;;;13.70;;
71941;SDS011;59997;53.300;-6.260;2022-08-14T06:40:21;27.25;;;14.05;;
71941;SDS011;59997;53.300;-6.260;2022-08-14T06:42:48;26.87;;;13.23;;
71941;SDS011;59997;53.300;-6.260;2022-08-14T06:45:16;21.27;;;11.63;;
71941;SDS011;59997;53.300;-6.260;2022-08-14T06:47:42;22.33;;;12.13;;
71941;SDS011;59997;53.300;-6.260;2022-08-14T06:50:11;16.70;;;10.57;;
71941;SDS011;59997;53.300;-6.260;2022-08-14T06:52:40;16.40;;;9.70;;
71941;SDS011;59997;53.300;-6.260;2022-08-14T06:55:08;20.00;;;10.80;;
71941;SDS011;59997;53.300;-6.260;2022-08-14T06:57:37;20.45;;;10.45;;
71941;SDS011;59997;53.300;-6.260;2022-08-14T07:00:11;18.63;;;9.60;;
71941;SDS011;59997;53.300;-6.260;2022-08-14T07:02:50;17.73;;;9.50;;
71941;SDS011;59997;53.300;-6.260;2022-08-14T07:05:35;17.40;;;9.60;;
71941;SDS011;59997;53.300;-6.260;2022-08-14T07:10:46;15.80;;;8.43;;
71941;SDS011;59997;53.300;-6.260;2022-08-14T07:13:14;14.38;;;8.10;;
71941;SDS011;59997;53.300;-6.260;2022-08-14T07:15:42;13.63;;;7.70;;
71941;SDS011;59997;53.300;-6.260;2022-08-14T07:18:12;14.90;;;8.00;;
71941;SDS011;59997;53.300;-6.260;2022-08-14T07:20:39;13.33;;;7.37;;
71941;SDS011;59997;53.300;-6.260;2022-08-14T07:23:07;14.02;;;7.63;;
71941;SDS011;59997;53.300;-6.260;2022-08-14T07:25:34;14.23;;;7.63;;
71941;SDS011;59997;53.300;-6.260;2022-08-14T07:28:07;13.02;;;7.25;;
71941;SDS011;59997;53.300;-6.260;2022-08-14T07:30:42;12.45;;;7.10;;
71941;SDS011;59997;53.300;-6.260;2022-08-14T07:33:09;13.03;;;6.80;;
71941;SDS011;59997;53.300;-6.260;2022-08-14T07:35:38;14.70;;;6.97;;
71941;SDS011;59997;53.300;-6.260;2022-08-14T07:38:05;11.52;;;6.55;;
71941;SDS011;59997;53.300;-6.260;2022-08-14T07:40:32;13.30;;;6.47;;
71941;SDS011;59997;53.300;-6.260;2022-08-14T07:42:59;14.38;;;7.00;;
71941;SDS011;59997;53.300;-6.260;2022-08-14T07:45:26;14.07;;;7.27;;
71941;SDS011;59997;53.300;-6.260;2022-08-14T07:47:53;10.35;;;6.55;;
71941;SDS011;59997;53.300;-6.260;2022-08-14T07:50:21;12.80;;;6.47;;
71941;SDS011;59997;53.300;-6.260;2022-08-14T07:52:48;11.57;;;6.20;;
71941;SDS011;59997;53.300;-6.260;2022-08-14T07:55:15;11.38;;;6.30;;
71941;SDS011;59997;53.300;-6.260;2022-08-14T07:57:44;13.03;;;5.87;;
71941;SDS011;59997;53.300;-6.260;2022-08-14T08:00:13;14.88;;;6.70;;
71941;SDS011;59997;53.300;-6.260;2022-08-14T08:02:42;12.63;;;6.32;;
71941;SDS011;59997;53.300;-6.260;2022-08-14T08:05:10;11.65;;;6.20;;
71941;SDS011;59997;53.300;-6.260;2022-08-14T08:07:38;9.52;;;5.53;;
71941;SDS011;59997;53.300;-6.260;2022-08-14T08:10:17;12.57;;;5.90;;
71941;SDS011;59997;53.300;-6.260;2022-08-14T08:13:13;10.20;;;5.80;;
71941;SDS011;59997;53.300;-6.260;2022-08-14T08:15:42;13.90;;;5.90;;
71941;SDS011;59997;53.300;-6.260;2022-08-14T08:18:11;11.27;;;5.30;;
71941;SDS011;59997;53.300;-6.260;2022-08-14T08:20:45;12.13;;;5.72;;
71941;SDS011;59997;53.300;-6.260;2022-08-14T08:23:14;9.23;;;5.30;;
71941;SDS011;59997;53.300;-6.260;2022-08-14T08:25:43;10.20;;;5.13;;
71941;SDS011;59997;53.300;-6.260;2022-08-14T08:28:18;12.68;;;5.13;;
71941;SDS011;59997;53.300;-6.260;2022-08-14T08:30:46;11.02;;;5.57;;
71941;SDS011;59997;53.300;-6.260;2022-08-14T08:33:13;12.82;;;5.88;;
71941;SDS011;59997;53.300;-6.260;2022-08-14T08:35:41;11.23;;;5.50;;
71941;SDS011;59997;53.300;-6.260;2022-08-14T08:38:12;9.13;;;4.82;;
71941;SDS011;59997;53.300;-6.260;2022-08-14T08:40:48;10.40;;;5.05;;
71941;SDS011;59997;53.300;-6.260;2022-08-14T08:43:20;9.63;;;5.00;;
71941;SDS011;59997;53.300;-6.260;2022-08-14T08:45:57;10.65;;;5.07;;
71941;SDS011;59997;53.300;-6.260;2022-08-14T08:48:25;10.00;;;4.60;;
71941;SDS011;59997;53.300;-6.260;2022-08-14T08:50:59;15.05;;;5.75;;
71941;SDS011;59997;53.300;-6.260;2022-08-14T08:53:29;10.52;;;5.35;;
71941;SDS011;59997;53.300;-6.260;2022-08-14T08:55:57;10.55;;;5.40;;
71941;SDS011;59997;53.300;-6.260;2022-08-14T08:58:22;10.20;;;5.47;;
71941;SDS011;59997;53.300;-6.260;2022-08-14T09:00:52;9.20;;;5.07;;
71941;SDS011;59997;53.300;-6.260;2022-08-14T09:03:26;10.95;;;4.80;;
71941;SDS011;59997;53.300;-6.260;2022-08-14T09:06:00;11.27;;;5.00;;
71941;SDS011;59997;53.300;-6.260;2022-08-14T09:08:33;10.35;;;4.65;;
71941;SDS011;59997;53.300;-6.260;2022-08-14T09:11:01;9.55;;;4.63;;
71941;SDS011;59997;53.300;-6.260;2022-08-14T09:13:34;9.27;;;4.60;;
71941;SDS011;59997;53.300;-6.260;2022-08-14T09:16:00;10.57;;;5.13;;
71941;SDS011;59997;53.300;-6.260;2022-08-14T09:18:26;13.68;;;5.63;;
71941;SDS011;59997;53.300;-6.260;2022-08-14T09:20:54;11.23;;;5.07;;
71941;SDS011;59997;53.300;-6.260;2022-08-14T09:23:21;10.13;;;5.03;;
71941;SDS011;59997;53.300;-6.260;2022-08-14T09:25:48;10.10;;;4.97;;
71941;SDS011;59997;53.300;-6.260;2022-08-14T09:28:16;10.93;;;5.00;;
71941;SDS011;59997;53.300;-6.260;2022-08-14T09:30:45;10.00;;;4.75;;
71941;SDS011;59997;53.300;-6.260;2022-08-14T09:33:19;11.13;;;5.32;;
71941;SDS011;59997;53.300;-6.260;2022-08-14T09:36:24;10.43;;;5.97;;
71941;SDS011;59997;53.300;-6.260;2022-08-14T09:45:16;10.45;;;5.75;;
71941;SDS011;59997;53.300;-6.260;2022-08-14T09:53:10;11.57;;;4.70;;
71941;SDS011;59997;53.300;-6.260;2022-08-14T09:55:41;10.20;;;4.57;;
71941;SDS011;59997;53.300;-6.260;2022-08-14T10:03:28;9.15;;;4.28;;
71941;SDS011;59997;53.300;-6.260;2022-08-14T10:06:11;8.60;;;4.17;;
71941;SDS011;59997;53.300;-6.260;2022-08-14T10:08:49;11.90;;;4.95;;
71941;SDS011;59997;53.300;-6.260;2022-08-14T10:11:19;10.82;;;4.18;;
71941;SDS011;59997;53.300;-6.260;2022-08-14T10:13:56;8.90;;;4.18;;
71941;SDS011;59997;53.300;-6.260;2022-08-14T10:16:24;9.68;;;4.07;;
71941;SDS011;59997;53.300;-6.260;2022-08-14T10:19:03;9.07;;;5.57;;
71941;SDS011;59997;53.300;-6.260;2022-08-14T10:21:32;7.78;;;4.72;;
71941;SDS011;59997;53.300;-6.260;2022-08-14T10:23:58;8.30;;;4.40;;
71941;SDS011;59997;53.300;-6.260;2022-08-14T10:26:24;10.57;;;4.57;;
71941;SDS011;59997;53.300;-6.260;2022-08-14T10:28:50;10.70;;;4.40;;
71941;SDS011;59997;53.300;-6.260;2022-08-14T10:31:28;11.95;;;4.72;;
71941;SDS011;59997;53.300;-6.260;2022-08-14T10:34:05;8.73;;;4.35;;
71941;SDS011;59997;53.300;-6.260;2022-08-14T10:36:37;10.52;;;5.00;;
71941;SDS011;59997;53.300;-6.260;2022-08-14T10:39:06;9.00;;;4.73;;
71941;SDS011;59997;53.300;-6.260;2022-08-14T10:41:34;9.88;;;5.05;;
71941;SDS011;59997;53.300;-6.260;2022-08-14T10:44:04;9.35;;;5.38;;
71941;SDS011;59997;53.300;-6.260;2022-08-14T10:46:53;10.82;;;4.72;;
71941;SDS011;59997;53.300;-6.260;2022-08-14T10:49:27;10.38;;;4.97;;
71941;SDS011;59997;53.300;-6.260;2022-08-14T10:52:10;10.73;;;5.57;;
71941;SDS011;59997;53.300;-6.260;2022-08-14T10:54:44;9.38;;;4.82;;
71941;SDS011;59997;53.300;-6.260;2022-08-14T10:59:40;11.20;;;4.60;;
71941;SDS011;59997;53.300;-6.260;2022-08-14T11:02:43;9.15;;;4.90;;
71941;SDS011;59997;53.300;-6.260;2022-08-14T11:07:39;9.40;;;5.37;;
71941;SDS011;59997;53.300;-6.260;2022-08-14T11:10:37;8.98;;;5.15;;
71941;SDS011;59997;53.300;-6.260;2022-08-14T11:13:03;10.48;;;5.13;;
71941;SDS011;59997;53.300;-6.260;2022-08-14T11:15:29;12.47;;;4.60;;
71941;SDS011;59997;53.300;-6.260;2022-08-14T11:17:55;9.82;;;5.15;;
71941;SDS011;59997;53.300;-6.260;2022-08-14T11:20:23;10.52;;;5.18;;
71941;SDS011;59997;53.300;-6.260;2022-08-14T11:22:54;8.98;;;5.30;;
71941;SDS011;59997;53.300;-6.260;2022-08-14T11:25:22;8.87;;;4.80;;
71941;SDS011;59997;53.300;-6.260;2022-08-14T11:27:50;10.32;;;5.47;;
71941;SDS011;59997;53.300;-6.260;2022-08-14T11:30:19;10.88;;;5.43;;
71941;SDS011;59997;53.300;-6.260;2022-08-14T11:32:50;8.45;;;4.55;;
71941;SDS011;59997;53.300;-6.260;2022-08-14T11:35:19;9.35;;;4.82;;
71941;SDS011;59997;53.300;-6.260;2022-08-14T11:37:48;11.60;;;5.20;;
71941;SDS011;59997;53.300;-6.260;2022-08-14T11:40:15;11.57;;;5.50;;
71941;SDS011;59997;53.300;-6.260;2022-08-14T11:42:43;9.07;;;5.18;;
71941;SDS011;59997;53.300;-6.260;2022-08-14T11:45:13;10.60;;;5.10;;
71941;SDS011;59997;53.300;-6.260;2022-08-14T11:47:39;11.10;;;5.55;;
71941;SDS011;59997;53.300;-6.260;2022-08-14T11:50:15;9.03;;;4.60;;
71941;SDS011;59997;53.300;-6.260;2022-08-14T11:52:44;9.60;;;4.90;;
71941;SDS011;59997;53.300;-6.260;2022-08-14T11:55:12;9.77;;;4.80;;
71941;SDS011;59997;53.300;-6.260;2022-08-14T11:57:41;10.55;;;4.53;;
71941;SDS011;59997;53.300;-6.260;2022-08-14T12:00:08;8.80;;;4.90;;
71941;SDS011;59997;53.300;-6.260;2022-08-14T12:02:47;9.37;;;4.27;;
71941;SDS011;59997;53.300;-6.260;2022-08-14T12:05:27;8.20;;;4.35;;
71941;SDS011;59997;53.300;-6.260;2022-08-14T12:08:04;8.13;;;4.38;;
71941;SDS011;59997;53.300;-6.260;2022-08-14T12:10:35;9.60;;;4.18;;
71941;SDS011;59997;53.300;-6.260;2022-08-14T12:13:18;9.65;;;4.32;;
71941;SDS011;59997;53.300;-6.260;2022-08-14T12:15:57;9.57;;;4.43;;
71941;SDS011;59997;53.300;-6.260;2022-08-14T12:18:34;10.15;;;4.53;;
71941;SDS011;59997;53.300;-6.260;2022-08-14T12:23:43;7.53;;;4.40;;
71941;SDS011;59997;53.300;-6.260;2022-08-14T12:26:16;11.43;;;4.90;;
71941;SDS011;59997;53.300;-6.260;2022-08-14T12:28:47;10.57;;;4.30;;
71941;SDS011;59997;53.300;-6.260;2022-08-14T12:31:29;9.50;;;4.70;;
71941;SDS011;59997;53.300;-6.260;2022-08-14T12:33:56;11.43;;;4.97;;
71941;SDS011;59997;53.300;-6.260;2022-08-14T12:36:23;10.93;;;4.57;;
71941;SDS011;59997;53.300;-6.260;2022-08-14T12:38:51;9.38;;;3.92;;
71941;SDS011;59997;53.300;-6.260;2022-08-14T12:41:20;9.68;;;4.40;;
71941;SDS011;59997;53.300;-6.260;2022-08-14T12:43:54;10.70;;;4.82;;
71941;SDS011;59997;53.300;-6.260;2022-08-14T12:48:55;11.63;;;4.60;;
71941;SDS011;59997;53.300;-6.260;2022-08-14T12:51:24;12.10;;;4.97;;
71941;SDS011;59997;53.300;-6.260;2022-08-14T12:53:53;10.55;;;5.20;;
71941;SDS011;59997;53.300;-6.260;2022-08-14T12:56:20;11.50;;;5.68;;
71941;SDS011;59997;53.300;-6.260;2022-08-14T12:58:53;9.95;;;5.50;;
71941;SDS011;59997;53.300;-6.260;2022-08-14T13:01:29;11.73;;;5.03;;
71941;SDS011;59997;53.300;-6.260;2022-08-14T13:04:10;10.95;;;5.18;;
71941;SDS011;59997;53.300;-6.260;2022-08-14T13:06:39;9.20;;;5.10;;
71941;SDS011;59997;53.300;-6.260;2022-08-14T13:09:15;9.90;;;4.80;;
71941;SDS011;59997;53.300;-6.260;2022-08-14T13:11:44;10.50;;;5.30;;
71941;SDS011;59997;53.300;-6.260;2022-08-14T13:14:17;9.60;;;5.07;;
71941;SDS011;59997;53.300;-6.260;2022-08-14T13:16:48;10.38;;;4.63;;
71941;SDS011;59997;53.300;-6.260;2022-08-14T13:19:19;8.60;;;4.55;;
71941;SDS011;59997;53.300;-6.260;2022-08-14T13:21:47;10.82;;;4.78;;
71941;SDS011;59997;53.300;-6.260;2022-08-14T13:24:15;10.60;;;5.55;;
71941;SDS011;59997;53.300;-6.260;2022-08-14T13:29:10;12.07;;;4.93;;
71941;SDS011;59997;53.300;-6.260;2022-08-14T13:31:42;8.25;;;4.90;;
71941;SDS011;59997;53.300;-6.260;2022-08-14T13:34:11;10.98;;;4.78;;
71941;SDS011;59997;53.300;-6.260;2022-08-14T13:36:38;12.20;;;5.13;;
71941;SDS011;59997;53.300;-6.260;2022-08-14T13:39:08;11.07;;;5.20;;
71941;SDS011;59997;53.300;-6.260;2022-08-14T13:41:33;12.25;;;5.15;;
71941;SDS011;59997;53.300;-6.260;2022-08-14T13:44:01;9.50;;;5.07;;
71941;SDS011;59997;53.300;-6.260;2022-08-14T13:46:28;10.88;;;5.57;;
71941;SDS011;59997;53.300;-6.260;2022-08-14T13:48:53;9.37;;;5.47;;
71941;SDS011;59997;53.300;-6.260;2022-08-14T13:51:22;12.20;;;5.50;;
71941;SDS011;59997;53.300;-6.260;2022-08-14T13:53:50;12.82;;;5.18;;
71941;SDS011;59997;53.300;-6.260;2022-08-14T13:56:22;9.95;;;6.00;;
71941;SDS011;59997;53.300;-6.260;2022-08-14T13:58:53;10.27;;;6.17;;
71941;SDS011;59997;53.300;-6.260;2022-08-14T14:01:24;11.48;;;5.82;;
71941;SDS011;59997;53.300;-6.260;2022-08-14T14:03:55;10.18;;;5.85;;
71941;SDS011;59997;53.300;-6.260;2022-08-14T14:06:25;10.82;;;5.32;;
71941;SDS011;59997;53.300;-6.260;2022-08-14T14:08:53;11.45;;;7.10;;
71941;SDS011;59997;53.300;-6.260;2022-08-14T14:11:20;14.13;;;6.10;;
71941;SDS011;59997;53.300;-6.260;2022-08-14T14:13:55;14.00;;;6.07;;
71941;SDS011;59997;53.300;-6.260;2022-08-14T14:16:23;13.70;;;6.10;;
71941;SDS011;59997;53.300;-6.260;2022-08-14T14:18:53;12.13;;;5.82;;
71941;SDS011;59997;53.300;-6.260;2022-08-14T14:21:25;11.55;;;5.53;;
71941;SDS011;59997;53.300;-6.260;2022-08-14T14:23:52;14.87;;;7.43;;
71941;SDS011;59997;53.300;-6.260;2022-08-14T14:26:19;11.18;;;5.78;;
71941;SDS011;59997;53.300;-6.260;2022-08-14T14:28:49;13.32;;;5.65;;
71941;SDS011;59997;53.300;-6.260;2022-08-14T14:31:19;12.18;;;6.00;;
71941;SDS011;59997;53.300;-6.260;2022-08-14T14:33:48;14.00;;;5.95;;
71941;SDS011;59997;53.300;-6.260;2022-08-14T14:36:23;11.70;;;5.67;;
71941;SDS011;59997;53.300;-6.260;2022-08-14T14:39:02;11.00;;;6.00;;
71941;SDS011;59997;53.300;-6.260;2022-08-14T14:41:31;11.63;;;6.10;;
71941;SDS011;59997;53.300;-6.260;2022-08-14T14:43:58;10.95;;;5.38;;
71941;SDS011;59997;53.300;-6.260;2022-08-14T14:46:27;10.63;;;5.30;;
71941;SDS011;59997;53.300;-6.260;2022-08-14T14:49:00;11.37;;;5.90;;
71941;SDS011;59997;53.300;-6.260;2022-08-14T14:51:27;19.17;;;5.50;;
71941;SDS011;59997;53.300;-6.260;2022-08-14T14:53:53;11.43;;;5.50;;
71941;SDS011;59997;53.300;-6.260;2022-08-14T14:56:22;11.52;;;5.85;;
71941;SDS011;59997;53.300;-6.260;2022-08-14T14:58:50;10.23;;;5.63;;
71941;SDS011;59997;53.300;-6.260;2022-08-14T15:01:16;10.70;;;6.10;;
71941;SDS011;59997;53.300;-6.260;2022-08-14T15:03:46;11.40;;;5.53;;
71941;SDS011;59997;53.300;-6.260;2022-08-14T15:06:12;11.48;;;6.03;;
71941;SDS011;59997;53.300;-6.260;2022-08-14T15:08:39;14.15;;;6.22;;